sensor_id;sensor_type;location;lat;lon;timestamp;pressure;altitude;pressure_sealevel;temperature
43292;BMP280;28754;47.700;7.924;2022-09-17T00:00:54;91089.09;;;12.10
43292;BMP280;28754;47.700;7.924;2022-09-17T00:03:40;91098.53;;;12.15
43292;BMP280;28754;47.700;7.924;2022-09-17T00:06:27;91094.66;;;12.17
43292;BMP280;28754;47.700;7.924;2022-09-17T00:09:14;91095.16;;;12.19
43292;BMP280;28754;47.700;7.924;2022-09-17T00:12:01;91089.72;;;12.21
43292;BMP280;28754;47.700;7.924;2022-09-17T00:14:47;91102.03;;;12.24
43292;BMP280;28754;47.700;7.924;2022-09-17T00:17:34;91100.47;;;12.28
43292;BMP280;28754;47.700;7.924;2022-09-17T00:20:21;91105.03;;;12.31
43292;BMP280;28754;47.700;7.924;2022-09-17T00:23:08;91096.28;;;12.32
43292;BMP280;28754;47.700;7.924;2022-09-17T00:25:55;91094.75;;;12.31
43292;BMP280;28754;47.700;7.924;2022-09-17T00:28:41;91094.75;;;12.31
43292;BMP280;28754;47.700;7.924;2022-09-17T00:31:31;91091.22;;;12.27
43292;BMP280;28754;47.700;7.924;2022-09-17T00:34:18;91086.16;;;12.22
43292;BMP280;28754;47.700;7.924;2022-09-17T00:37:05;91087.97;;;12.16
43292;BMP280;28754;47.700;7.924;2022-09-17T00:39:52;91098.56;;;12.10
43292;BMP280;28754;47.700;7.924;2022-09-17T00:42:38;91100.66;;;12.08
43292;BMP280;28754;47.700;7.924;2022-09-17T00:45:27;91096.06;;;12.05
43292;BMP280;28754;47.700;7.924;2022-09-17T00:48:21;91098.19;;;11.98
43292;BMP280;28754;47.700;7.924;2022-09-17T00:51:09;91098.22;;;11.93
43292;BMP280;28754;47.700;7.924;2022-09-17T00:53:56;91101.41;;;11.85
43292;BMP280;28754;47.700;7.924;2022-09-17T00:56:43;91102.47;;;11.79
43292;BMP280;28754;47.700;7.924;2022-09-17T00:59:30;91104.09;;;11.70
43292;BMP280;28754;47.700;7.924;2022-09-17T01:02:18;91096.44;;;11.66
43292;BMP280;28754;47.700;7.924;2022-09-17T01:05:06;91104.41;;;11.64
43292;BMP280;28754;47.700;7.924;2022-09-17T01:08:16;91113.13;;;11.63
43292;BMP280;28754;47.700;7.924;2022-09-17T01:14:53;91112.91;;;11.60
43292;BMP280;28754;47.700;7.924;2022-09-17T01:28:40;91123.97;;;11.55
43292;BMP280;28754;47.700;7.924;2022-09-17T01:31:32;91118.34;;;11.53
43292;BMP280;28754;47.700;7.924;2022-09-17T01:34:46;91129.66;;;11.47
43292;BMP280;28754;47.700;7.924;2022-09-17T01:38:01;91141.97;;;11.45
43292;BMP280;28754;47.700;7.924;2022-09-17T01:41:07;91144.81;;;11.44
43292;BMP280;28754;47.700;7.924;2022-09-17T01:47:14;91137.88;;;11.39
43292;BMP280;28754;47.700;7.924;2022-09-17T01:50:10;91148.94;;;11.40
43292;BMP280;28754;47.700;7.924;2022-09-17T01:52:58;91148.63;;;11.41
43292;BMP280;28754;47.700;7.924;2022-09-17T01:55:47;91149.16;;;11.43
43292;BMP280;28754;47.700;7.924;2022-09-17T01:58:48;91143.53;;;11.46
43292;BMP280;28754;47.700;7.924;2022-09-17T02:01:39;91150.69;;;11.49
43292;BMP280;28754;47.700;7.924;2022-09-17T02:04:34;91137.59;;;11.51
43292;BMP280;28754;47.700;7.924;2022-09-17T02:07:24;91149.88;;;11.54
43292;BMP280;28754;47.700;7.924;2022-09-17T02:10:19;91156.25;;;11.56
43292;BMP280;28754;47.700;7.924;2022-09-17T02:13:29;91155.50;;;11.56
43292;BMP280;28754;47.700;7.924;2022-09-17T02:19:20;91150.41;;;11.51
43292;BMP280;28754;47.700;7.924;2022-09-17T02:22:36;91152.97;;;11.51
43292;BMP280;28754;47.700;7.924;2022-09-17T02:28:40;91143.44;;;11.56
43292;BMP280;28754;47.700;7.924;2022-09-17T02:31:28;91153.19;;;11.59
43292;BMP280;28754;47.700;7.924;2022-09-17T02:34:15;91152.38;;;11.59
43292;BMP280;28754;47.700;7.924;2022-09-17T02:37:02;91151.38;;;11.55
43292;BMP280;28754;47.700;7.924;2022-09-17T02:39:50;91150.41;;;11.51
43292;BMP280;28754;47.700;7.924;2022-09-17T02:43:25;91149.41;;;11.47
43292;BMP280;28754;47.700;7.924;2022-09-17T02:46:46;91147.34;;;11.49
43292;BMP280;28754;47.700;7.924;2022-09-17T02:59:55;91128.78;;;11.24
43292;BMP280;28754;47.700;7.924;2022-09-17T03:02:54;91125.75;;;11.17
43292;BMP280;28754;47.700;7.924;2022-09-17T03:05:42;91127.59;;;11.06
43292;BMP280;28754;47.700;7.924;2022-09-17T03:08:39;91124.13;;;10.88
43292;BMP280;28754;47.700;7.924;2022-09-17T03:11:26;91114.44;;;10.75
43292;BMP280;28754;47.700;7.924;2022-09-17T03:14:13;91125.75;;;10.69
43292;BMP280;28754;47.700;7.924;2022-09-17T03:17:00;91126.31;;;10.61
43292;BMP280;28754;47.700;7.924;2022-09-17T03:19:46;91123.53;;;10.53
43292;BMP280;28754;47.700;7.924;2022-09-17T03:22:33;91128.91;;;10.51
43292;BMP280;28754;47.700;7.924;2022-09-17T03:25:21;91123.78;;;10.51
43292;BMP280;28754;47.700;7.924;2022-09-17T03:28:07;91130.91;;;10.59
43292;BMP280;28754;47.700;7.924;2022-09-17T03:30:54;91140.59;;;10.72
43292;BMP280;28754;47.700;7.924;2022-09-17T03:33:41;91132.34;;;10.80
43292;BMP280;28754;47.700;7.924;2022-09-17T03:36:27;91123.66;;;10.81
43292;BMP280;28754;47.700;7.924;2022-09-17T03:39:14;91132.13;;;10.76
43292;BMP280;28754;47.700;7.924;2022-09-17T03:42:00;91136.72;;;10.79
43292;BMP280;28754;47.700;7.924;2022-09-17T03:44:47;91137.47;;;10.85
43292;BMP280;28754;47.700;7.924;2022-09-17T03:47:34;91139.75;;;10.91
43292;BMP280;28754;47.700;7.924;2022-09-17T03:50:20;91140.75;;;10.95
43292;BMP280;28754;47.700;7.924;2022-09-17T03:53:07;91138.91;;;11.00
43292;BMP280;28754;47.700;7.924;2022-09-17T03:56:00;91145.50;;;11.11
43292;BMP280;28754;47.700;7.924;2022-09-17T03:58:47;91154.44;;;11.19
43292;BMP280;28754;47.700;7.924;2022-09-17T04:01:34;91154.16;;;11.25
43292;BMP280;28754;47.700;7.924;2022-09-17T04:04:21;91147.97;;;11.26
43292;BMP280;28754;47.700;7.924;2022-09-17T04:07:08;91142.63;;;11.23
43292;BMP280;28754;47.700;7.924;2022-09-17T04:09:55;91145.44;;;11.21
43292;BMP280;28754;47.700;7.924;2022-09-17T04:12:41;91142.94;;;11.16
43292;BMP280;28754;47.700;7.924;2022-09-17T04:15:28;91150.63;;;11.11
43292;BMP280;28754;47.700;7.924;2022-09-17T04:18:15;91148.84;;;11.07
43292;BMP280;28754;47.700;7.924;2022-09-17T04:21:01;91153.72;;;11.08
43292;BMP280;28754;47.700;7.924;2022-09-17T04:23:49;91149.63;;;11.07
43292;BMP280;28754;47.700;7.924;2022-09-17T04:26:36;91146.03;;;11.08
43292;BMP280;28754;47.700;7.924;2022-09-17T04:29:22;91156.28;;;11.08
43292;BMP280;28754;47.700;7.924;2022-09-17T04:32:09;91163.19;;;11.13
43292;BMP280;28754;47.700;7.924;2022-09-17T04:34:56;91167.53;;;11.12
43292;BMP280;28754;47.700;7.924;2022-09-17T04:37:42;91166.75;;;11.12
43292;BMP280;28754;47.700;7.924;2022-09-17T04:40:29;91162.94;;;11.14
43292;BMP280;28754;47.700;7.924;2022-09-17T04:43:16;91166.00;;;11.16
43292;BMP280;28754;47.700;7.924;2022-09-17T04:46:03;91179.03;;;11.20
43292;BMP280;28754;47.700;7.924;2022-09-17T04:48:50;91179.78;;;11.20
43292;BMP280;28754;47.700;7.924;2022-09-17T04:51:36;91179.78;;;11.20
43292;BMP280;28754;47.700;7.924;2022-09-17T04:54:23;91182.84;;;11.22
43292;BMP280;28754;47.700;7.924;2022-09-17T04:57:10;91188.25;;;11.21
43292;BMP280;28754;47.700;7.924;2022-09-17T04:59:56;91183.41;;;11.19
43292;BMP280;28754;47.700;7.924;2022-09-17T05:02:50;91183.94;;;11.16
43292;BMP280;28754;47.700;7.924;2022-09-17T05:05:36;91194.19;;;11.16
43292;BMP280;28754;47.700;7.924;2022-09-17T05:08:23;91190.84;;;11.16
43292;BMP280;28754;47.700;7.924;2022-09-17T05:11:10;91193.38;;;11.16
43292;BMP280;28754;47.700;7.924;2022-09-17T05:13:57;91188.56;;;11.14
43292;BMP280;28754;47.700;7.924;2022-09-17T05:16:43;91189.56;;;11.13
43292;BMP280;28754;47.700;7.924;2022-09-17T05:19:30;91196.75;;;11.11
43292;BMP280;28754;47.700;7.924;2022-09-17T05:22:17;91192.38;;;11.12
43292;BMP280;28754;47.700;7.924;2022-09-17T05:25:05;91199.31;;;11.11
43292;BMP280;28754;47.700;7.924;2022-09-17T05:27:52;91200.34;;;11.10
43292;BMP280;28754;47.700;7.924;2022-09-17T05:30:39;91210.59;;;11.10
43292;BMP280;28754;47.700;7.924;2022-09-17T05:33:26;91211.09;;;11.12
43292;BMP280;28754;47.700;7.924;2022-09-17T05:36:13;91208.53;;;11.12
43292;BMP280;28754;47.700;7.924;2022-09-17T05:39:00;91210.59;;;11.10
43292;BMP280;28754;47.700;7.924;2022-09-17T05:41:47;91223.91;;;11.12
43292;BMP280;28754;47.700;7.924;2022-09-17T05:44:33;91217.25;;;11.11
43292;BMP280;28754;47.700;7.924;2022-09-17T05:47:20;91217.03;;;11.03
43292;BMP280;28754;47.700;7.924;2022-09-17T05:50:07;91219.88;;;10.96
43292;BMP280;28754;47.700;7.924;2022-09-17T05:52:54;91223.47;;;10.96
43292;BMP280;28754;47.700;7.924;2022-09-17T05:55:41;91226.28;;;10.94
43292;BMP280;28754;47.700;7.924;2022-09-17T05:58:28;91221.16;;;10.94
43292;BMP280;28754;47.700;7.924;2022-09-17T06:01:15;91226.53;;;10.97
43292;BMP280;28754;47.700;7.924;2022-09-17T06:04:01;91231.13;;;11.00
43292;BMP280;28754;47.700;7.924;2022-09-17T06:06:49;91238.03;;;11.05
43292;BMP280;28754;47.700;7.924;2022-09-17T06:09:36;91243.41;;;11.08
43292;BMP280;28754;47.700;7.924;2022-09-17T06:12:23;91235.19;;;11.11
43292;BMP280;28754;47.700;7.924;2022-09-17T06:15:10;91228.00;;;11.13
43292;BMP280;28754;47.700;7.924;2022-09-17T06:18:00;91243.34;;;11.18
43292;BMP280;28754;47.700;7.924;2022-09-17T06:21:01;91248.97;;;11.20
43292;BMP280;28754;47.700;7.924;2022-09-17T06:23:49;91239.00;;;11.19
43292;BMP280;28754;47.700;7.924;2022-09-17T06:26:36;91247.50;;;11.14
43292;BMP280;28754;47.700;7.924;2022-09-17T06:29:23;91242.41;;;11.04
43292;BMP280;28754;47.700;7.924;2022-09-17T06:32:10;91245.25;;;10.98
43292;BMP280;28754;47.700;7.924;2022-09-17T06:34:58;91253.47;;;10.95
43292;BMP280;28754;47.700;7.924;2022-09-17T06:37:45;91268.53;;;10.96
43292;BMP280;28754;47.700;7.924;2022-09-17T06:40:32;91255.75;;;10.96
43292;BMP280;28754;47.700;7.924;2022-09-17T06:43:19;91264.94;;;11.02
43292;BMP280;28754;47.700;7.924;2022-09-17T06:46:06;91261.34;;;11.08
43292;BMP280;28754;47.700;7.924;2022-09-17T06:48:54;91264.41;;;11.10
43292;BMP280;28754;47.700;7.924;2022-09-17T06:51:41;91273.91;;;11.10
43292;BMP280;28754;47.700;7.924;2022-09-17T06:54:27;91267.47;;;11.07
43292;BMP280;28754;47.700;7.924;2022-09-17T06:57:14;91270.03;;;11.12
43292;BMP280;28754;47.700;7.924;2022-09-17T07:00:02;91272.31;;;11.14
43292;BMP280;28754;47.700;7.924;2022-09-17T07:02:57;91272.31;;;11.14
43292;BMP280;28754;47.700;7.924;2022-09-17T07:05:43;91277.72;;;11.12
43292;BMP280;28754;47.700;7.924;2022-09-17T07:08:33;91286.94;;;11.13
43292;BMP280;28754;47.700;7.924;2022-09-17T07:11:20;91290.03;;;11.10
43292;BMP280;28754;47.700;7.924;2022-09-17T07:14:07;91296.72;;;11.06
43292;BMP280;28754;47.700;7.924;2022-09-17T07:16:53;91294.94;;;11.02
43292;BMP280;28754;47.700;7.924;2022-09-17T07:19:40;91303.41;;;10.97
43292;BMP280;28754;47.700;7.924;2022-09-17T07:22:27;91302.38;;;10.94
43292;BMP280;28754;47.700;7.924;2022-09-17T07:25:14;91303.91;;;10.99
43292;BMP280;28754;47.700;7.924;2022-09-17T07:28:02;91301.84;;;11.06
43292;BMP280;28754;47.700;7.924;2022-09-17T07:30:50;91315.63;;;11.15
43292;BMP280;28754;47.700;7.924;2022-09-17T07:33:38;91310.47;;;11.30
43292;BMP280;28754;47.700;7.924;2022-09-17T07:36:25;91302.00;;;11.25
43292;BMP280;28754;47.700;7.924;2022-09-17T07:39:12;91298.19;;;11.22
43292;BMP280;28754;47.700;7.924;2022-09-17T07:41:59;91296.13;;;11.29
43292;BMP280;28754;47.700;7.924;2022-09-17T07:44:45;91302.97;;;11.48
43292;BMP280;28754;47.700;7.924;2022-09-17T07:47:38;91310.53;;;11.73
43292;BMP280;28754;47.700;7.924;2022-09-17T07:50:25;91313.22;;;11.96
43292;BMP280;28754;47.700;7.924;2022-09-17T07:53:13;91315.78;;;11.96
43292;BMP280;28754;47.700;7.924;2022-09-17T07:56:00;91309.63;;;11.97
43292;BMP280;28754;47.700;7.924;2022-09-17T07:58:47;91316.50;;;12.06
43292;BMP280;28754;47.700;7.924;2022-09-17T08:01:34;91321.59;;;12.11
43292;BMP280;28754;47.700;7.924;2022-09-17T08:04:21;91320.28;;;12.14
43292;BMP280;28754;47.700;7.924;2022-09-17T08:07:12;91319.56;;;12.08
43292;BMP280;28754;47.700;7.924;2022-09-17T08:09:59;91313.63;;;12.13
43292;BMP280;28754;47.700;7.924;2022-09-17T08:12:48;91306.84;;;12.27
43292;BMP280;28754;47.700;7.924;2022-09-17T08:15:35;91321.13;;;12.42
43292;BMP280;28754;47.700;7.924;2022-09-17T08:18:21;91313.75;;;12.64
43292;BMP280;28754;47.700;7.924;2022-09-17T08:21:12;91311.34;;;12.77
43292;BMP280;28754;47.700;7.924;2022-09-17T08:23:59;91314.69;;;12.73
43292;BMP280;28754;47.700;7.924;2022-09-17T08:26:46;91322.97;;;12.65
43292;BMP280;28754;47.700;7.924;2022-09-17T08:29:32;91331.25;;;12.57
43292;BMP280;28754;47.700;7.924;2022-09-17T08:32:19;91329.69;;;12.61
43292;BMP280;28754;47.700;7.924;2022-09-17T08:35:07;91326.28;;;12.66
43292;BMP280;28754;47.700;7.924;2022-09-17T08:37:54;91330.72;;;12.60
43292;BMP280;28754;47.700;7.924;2022-09-17T08:47:29;91343.47;;;12.70
43292;BMP280;28754;47.700;7.924;2022-09-17T08:50:31;91346.09;;;12.65
43292;BMP280;28754;47.700;7.924;2022-09-17T08:53:43;91343.69;;;12.45
43292;BMP280;28754;47.700;7.924;2022-09-17T08:56:36;91344.66;;;12.16
43292;BMP280;28754;47.700;7.924;2022-09-17T08:59:37;91345.03;;;11.95
43292;BMP280;28754;47.700;7.924;2022-09-17T09:06:13;91343.63;;;11.69
43292;BMP280;28754;47.700;7.924;2022-09-17T09:09:13;91352.84;;;11.75
43292;BMP280;28754;47.700;7.924;2022-09-17T09:12:08;91355.38;;;11.85
43292;BMP280;28754;47.700;7.924;2022-09-17T09:15:01;91363.53;;;11.92
43292;BMP280;28754;47.700;7.924;2022-09-17T09:17:50;91355.28;;;11.95
43292;BMP280;28754;47.700;7.924;2022-09-17T09:21:26;91370.72;;;11.90
43292;BMP280;28754;47.700;7.924;2022-09-17T09:24:23;91357.13;;;11.90
43292;BMP280;28754;47.700;7.924;2022-09-17T09:27:16;91361.44;;;11.99
43292;BMP280;28754;47.700;7.924;2022-09-17T09:30:12;91352.09;;;12.18
43292;BMP280;28754;47.700;7.924;2022-09-17T09:33:12;91359.53;;;12.52
43292;BMP280;28754;47.700;7.924;2022-09-17T09:36:00;91363.22;;;12.74
43292;BMP280;28754;47.700;7.924;2022-09-17T09:38:54;91366.19;;;12.91
43292;BMP280;28754;47.700;7.924;2022-09-17T09:41:49;91362.94;;;13.09
43292;BMP280;28754;47.700;7.924;2022-09-17T09:44:36;91369.56;;;13.15
43292;BMP280;28754;47.700;7.924;2022-09-17T09:50:53;91380.34;;;12.89
43292;BMP280;28754;47.700;7.924;2022-09-17T09:54:30;91371.22;;;12.68
43292;BMP280;28754;47.700;7.924;2022-09-17T09:57:21;91379.78;;;12.59
43292;BMP280;28754;47.700;7.924;2022-09-17T10:00:27;91376.22;;;12.55
43292;BMP280;28754;47.700;7.924;2022-09-17T10:03:31;91375.00;;;12.47
43292;BMP280;28754;47.700;7.924;2022-09-17T10:06:20;91374.75;;;12.44
43292;BMP280;28754;47.700;7.924;2022-09-17T10:09:09;91384.78;;;12.45
43292;BMP280;28754;47.700;7.924;2022-09-17T10:12:14;91387.28;;;12.50
43292;BMP280;28754;47.700;7.924;2022-09-17T10:15:26;91380.84;;;12.53
43292;BMP280;28754;47.700;7.924;2022-09-17T10:18:20;91388.25;;;12.64
43292;BMP280;28754;47.700;7.924;2022-09-17T10:21:37;91386.84;;;12.76
43292;BMP280;28754;47.700;7.924;2022-09-17T10:24:30;91380.47;;;12.69
43292;BMP280;28754;47.700;7.924;2022-09-17T10:27:21;91381.66;;;12.48
43292;BMP280;28754;47.700;7.924;2022-09-17T10:33:22;91383.44;;;12.10
43292;BMP280;28754;47.700;7.924;2022-09-17T10:36:13;91387.69;;;11.91
43292;BMP280;28754;47.700;7.924;2022-09-17T10:42:17;91388.44;;;11.92
43292;BMP280;28754;47.700;7.924;2022-09-17T10:45:10;91395.31;;;12.01
43292;BMP280;28754;47.700;7.924;2022-09-17T10:48:16;91394.50;;;12.10
43292;BMP280;28754;47.700;7.924;2022-09-17T10:51:06;91395.19;;;12.21
43292;BMP280;28754;47.700;7.924;2022-09-17T10:54:18;91395.19;;;12.26
43292;BMP280;28754;47.700;7.924;2022-09-17T10:57:22;91387.56;;;12.11
43292;BMP280;28754;47.700;7.924;2022-09-17T11:00:21;91394.28;;;12.02
43292;BMP280;28754;47.700;7.924;2022-09-17T11:10:15;91399.44;;;11.97
43292;BMP280;28754;47.700;7.924;2022-09-17T11:13:35;91395.84;;;11.93
43292;BMP280;28754;47.700;7.924;2022-09-17T11:32:54;91394.94;;;12.22
43292;BMP280;28754;47.700;7.924;2022-09-17T11:35:51;91396.19;;;12.25
43292;BMP280;28754;47.700;7.924;2022-09-17T11:38:48;91392.03;;;12.33
43292;BMP280;28754;47.700;7.924;2022-09-17T11:41:41;91397.00;;;12.58
43292;BMP280;28754;47.700;7.924;2022-09-17T11:44:41;91402.75;;;12.83
43292;BMP280;28754;47.700;7.924;2022-09-17T11:47:41;91390.72;;;13.07
43292;BMP280;28754;47.700;7.924;2022-09-17T11:51:07;91396.13;;;13.05
43292;BMP280;28754;47.700;7.924;2022-09-17T11:54:51;91397.75;;;12.97
43292;BMP280;28754;47.700;7.924;2022-09-17T11:57:20;91392.63;;;12.97
43292;BMP280;28754;47.700;7.924;2022-09-17T12:00:18;91392.00;;;13.09
43292;BMP280;28754;47.700;7.924;2022-09-17T12:03:27;91384.13;;;13.24
43292;BMP280;28754;47.700;7.924;2022-09-17T12:06:31;91379.19;;;13.28
43292;BMP280;28754;47.700;7.924;2022-09-17T12:09:24;91376.44;;;13.19
43292;BMP280;28754;47.700;7.924;2022-09-17T12:12:20;91380.16;;;13.08
43292;BMP280;28754;47.700;7.924;2022-09-17T12:15:23;91379.28;;;12.95
43292;BMP280;28754;47.700;7.924;2022-09-17T12:18:43;91384.03;;;12.78
43292;BMP280;28754;47.700;7.924;2022-09-17T12:21:46;91391.63;;;12.60
43292;BMP280;28754;47.700;7.924;2022-09-17T12:24:34;91383.91;;;12.60
43292;BMP280;28754;47.700;7.924;2022-09-17T12:27:42;91382.66;;;12.90
43292;BMP280;28754;47.700;7.924;2022-09-17T12:30:39;91370.34;;;13.15
43292;BMP280;28754;47.700;7.924;2022-09-17T12:33:48;91371.50;;;13.51
43292;BMP280;28754;47.700;7.924;2022-09-17T12:36:51;91361.19;;;13.74
43292;BMP280;28754;47.700;7.924;2022-09-17T12:50:50;91383.47;;;13.14
43292;BMP280;28754;47.700;7.924;2022-09-17T12:53:42;91389.56;;;12.95
43292;BMP280;28754;47.700;7.924;2022-09-17T12:57:00;91393.75;;;12.81
43292;BMP280;28754;47.700;7.924;2022-09-17T13:00:03;91389.94;;;12.73
43292;BMP280;28754;47.700;7.924;2022-09-17T13:03:17;91392.06;;;12.67
43292;BMP280;28754;47.700;7.924;2022-09-17T13:22:18;91404.09;;;12.33
43292;BMP280;28754;47.700;7.924;2022-09-17T13:25:10;91394.63;;;12.29
43292;BMP280;28754;47.700;7.924;2022-09-17T13:28:09;91394.13;;;12.27
43292;BMP280;28754;47.700;7.924;2022-09-17T13:31:00;91400.03;;;12.27
43292;BMP280;28754;47.700;7.924;2022-09-17T13:33:55;91397.19;;;12.29
43292;BMP280;28754;47.700;7.924;2022-09-17T13:36:46;91399.78;;;12.29
43292;BMP280;28754;47.700;7.924;2022-09-17T13:39:45;91400.81;;;12.28
43292;BMP280;28754;47.700;7.924;2022-09-17T13:42:46;91388.28;;;12.21
43292;BMP280;28754;47.700;7.924;2022-09-17T13:48:50;91402.38;;;12.19
43292;BMP280;28754;47.700;7.924;2022-09-17T13:54:36;91390.50;;;12.33
43292;BMP280;28754;47.700;7.924;2022-09-17T13:57:25;91394.03;;;12.41
43292;BMP280;28754;47.700;7.924;2022-09-17T14:00:54;91395.75;;;12.51
43292;BMP280;28754;47.700;7.924;2022-09-17T14:09:49;91392.25;;;13.08
43292;BMP280;28754;47.700;7.924;2022-09-17T14:15:36;91384.28;;;14.02
43292;BMP280;28754;47.700;7.924;2022-09-17T14:18:42;91388.63;;;14.43
43292;BMP280;28754;47.700;7.924;2022-09-17T14:21:32;91379.03;;;14.98
43292;BMP280;28754;47.700;7.924;2022-09-17T14:24:24;91370.06;;;15.27
43292;BMP280;28754;47.700;7.924;2022-09-17T14:30:30;91378.00;;;14.99
43292;BMP280;28754;47.700;7.924;2022-09-17T14:33:24;91374.47;;;14.77
43292;BMP280;28754;47.700;7.924;2022-09-17T14:36:18;91377.44;;;14.52
43292;BMP280;28754;47.700;7.924;2022-09-17T14:39:19;91375.47;;;14.26
43292;BMP280;28754;47.700;7.924;2022-09-17T14:42:16;91377.06;;;14.04
43292;BMP280;28754;47.700;7.924;2022-09-17T14:45:21;91366.94;;;13.89
43292;BMP280;28754;47.700;7.924;2022-09-17T14:57:01;91375.13;;;13.50
43292;BMP280;28754;47.700;7.924;2022-09-17T14:59:55;91372.66;;;13.40
43292;BMP280;28754;47.700;7.924;2022-09-17T15:02:43;91382.75;;;13.32
43292;BMP280;28754;47.700;7.924;2022-09-17T15:05:33;91379.19;;;13.28
43292;BMP280;28754;47.700;7.924;2022-09-17T15:08:25;91388.53;;;13.24
43292;BMP280;28754;47.700;7.924;2022-09-17T15:11:14;91388.84;;;13.17
43292;BMP280;28754;47.700;7.924;2022-09-17T15:14:06;91388.34;;;13.15
43292;BMP280;28754;47.700;7.924;2022-09-17T15:17:02;91384.00;;;13.11
43292;BMP280;28754;47.700;7.924;2022-09-17T15:19:57;91386.63;;;13.06
43292;BMP280;28754;47.700;7.924;2022-09-17T15:22:53;91389.50;;;13.00
43292;BMP280;28754;47.700;7.924;2022-09-17T15:25:43;91391.88;;;12.96
43292;BMP280;28754;47.700;7.924;2022-09-17T15:28:41;91395.44;;;12.95
43292;BMP280;28754;47.700;7.924;2022-09-17T15:31:29;91394.44;;;12.96
43292;BMP280;28754;47.700;7.924;2022-09-17T15:34:19;91389.56;;;12.95
43292;BMP280;28754;47.700;7.924;2022-09-17T15:37:19;91399.34;;;12.93
43292;BMP280;28754;47.700;7.924;2022-09-17T15:40:24;91403.41;;;12.94
43292;BMP280;28754;47.700;7.924;2022-09-17T15:43:27;91393.69;;;12.91
43292;BMP280;28754;47.700;7.924;2022-09-17T15:46:27;91402.72;;;12.88
43292;BMP280;28754;47.700;7.924;2022-09-17T15:49:35;91404.03;;;12.86
43292;BMP280;28754;47.700;7.924;2022-09-17T15:52:25;91405.84;;;12.85
43292;BMP280;28754;47.700;7.924;2022-09-17T15:59:28;91404.81;;;12.76
43292;BMP280;28754;47.700;7.924;2022-09-17T16:02:30;91410.50;;;12.73
43292;BMP280;28754;47.700;7.924;2022-09-17T16:05:42;91415.41;;;12.70
43292;BMP280;28754;47.700;7.924;2022-09-17T16:08:33;91407.47;;;12.67
43292;BMP280;28754;47.700;7.924;2022-09-17T16:11:26;91414.69;;;12.65
43292;BMP280;28754;47.700;7.924;2022-09-17T16:14:14;91414.44;;;12.61
43292;BMP280;28754;47.700;7.924;2022-09-17T16:17:22;91417.31;;;12.55
43292;BMP280;28754;47.700;7.924;2022-09-17T16:20:13;91419.41;;;12.48
43292;BMP280;28754;47.700;7.924;2022-09-17T16:23:01;91414.59;;;12.41
43292;BMP280;28754;47.700;7.924;2022-09-17T16:25:48;91421.28;;;12.37
43292;BMP280;28754;47.700;7.924;2022-09-17T16:28:35;91417.69;;;12.33
43292;BMP280;28754;47.700;7.924;2022-09-17T16:31:23;91417.50;;;12.30
43292;BMP280;28754;47.700;7.924;2022-09-17T16:34:10;91430.84;;;12.27
43292;BMP280;28754;47.700;7.924;2022-09-17T16:36:56;91423.69;;;12.24
43292;BMP280;28754;47.700;7.924;2022-09-17T16:39:43;91434.19;;;12.23
43292;BMP280;28754;47.700;7.924;2022-09-17T16:42:31;91429.59;;;12.20
43292;BMP280;28754;47.700;7.924;2022-09-17T16:45:17;91437.06;;;12.16
43292;BMP280;28754;47.700;7.924;2022-09-17T16:48:06;91430.66;;;12.14
43292;BMP280;28754;47.700;7.924;2022-09-17T16:50:53;91426.56;;;12.13
43292;BMP280;28754;47.700;7.924;2022-09-17T16:53:40;91427.59;;;12.12
43292;BMP280;28754;47.700;7.924;2022-09-17T16:56:26;91437.09;;;12.11
43292;BMP280;28754;47.700;7.924;2022-09-17T16:59:13;91435.28;;;12.12
43292;BMP280;28754;47.700;7.924;2022-09-17T17:02:00;91435.28;;;12.12
43292;BMP280;28754;47.700;7.924;2022-09-17T17:04:47;91431.97;;;12.11
43292;BMP280;28754;47.700;7.924;2022-09-17T17:07:35;91449.66;;;12.08
43292;BMP280;28754;47.700;7.924;2022-09-17T17:10:25;91447.16;;;11.98
43292;BMP280;28754;47.700;7.924;2022-09-17T17:13:12;91444.13;;;11.91
43292;BMP280;28754;47.700;7.924;2022-09-17T17:15:58;91439.75;;;11.87
43292;BMP280;28754;47.700;7.924;2022-09-17T17:18:45;91454.38;;;11.86
43292;BMP280;28754;47.700;7.924;2022-09-17T17:21:32;91452.31;;;11.88
43292;BMP280;28754;47.700;7.924;2022-09-17T17:24:19;91442.31;;;11.87
43292;BMP280;28754;47.700;7.924;2022-09-17T17:27:06;91452.56;;;11.87
43292;BMP280;28754;47.700;7.924;2022-09-17T17:29:54;91458.50;;;11.87
43292;BMP280;28754;47.700;7.924;2022-09-17T17:32:42;91458.50;;;11.87
43292;BMP280;28754;47.700;7.924;2022-09-17T17:35:29;91454.38;;;11.91
43292;BMP280;28754;47.700;7.924;2022-09-17T17:38:19;91454.38;;;11.91
43292;BMP280;28754;47.700;7.924;2022-09-17T17:41:13;91447.44;;;11.92
43292;BMP280;28754;47.700;7.924;2022-09-17T17:44:00;91445.38;;;11.89
43292;BMP280;28754;47.700;7.924;2022-09-17T17:46:47;91453.38;;;11.87
43292;BMP280;28754;47.700;7.924;2022-09-17T17:49:34;91453.88;;;11.84
43292;BMP280;28754;47.700;7.924;2022-09-17T17:52:20;91452.59;;;11.82
43292;BMP280;28754;47.700;7.924;2022-09-17T17:55:07;91451.34;;;11.79
43292;BMP280;28754;47.700;7.924;2022-09-17T17:57:55;91445.19;;;11.75
43292;BMP280;28754;47.700;7.924;2022-09-17T18:00:43;91461.34;;;11.76
43292;BMP280;28754;47.700;7.924;2022-09-17T18:03:29;91458.28;;;11.69
43292;BMP280;28754;47.700;7.924;2022-09-17T18:06:17;91466.25;;;11.63
43292;BMP280;28754;47.700;7.924;2022-09-17T18:09:04;91471.91;;;11.60
43292;BMP280;28754;47.700;7.924;2022-09-17T18:11:51;91476.78;;;11.61
43292;BMP280;28754;47.700;7.924;2022-09-17T18:14:40;91491.91;;;11.63
43292;BMP280;28754;47.700;7.924;2022-09-17T18:17:28;91502.41;;;11.61
43292;BMP280;28754;47.700;7.924;2022-09-17T18:20:16;91503.72;;;11.59
43292;BMP280;28754;47.700;7.924;2022-09-17T18:23:07;91503.72;;;11.54
43292;BMP280;28754;47.700;7.924;2022-09-17T18:25:58;91507.84;;;11.40
43292;BMP280;28754;47.700;7.924;2022-09-17T18:28:47;91513.47;;;11.37
43292;BMP280;28754;47.700;7.924;2022-09-17T18:31:34;91514.22;;;11.37
43292;BMP280;28754;47.700;7.924;2022-09-17T18:34:21;91521.69;;;11.34
43292;BMP280;28754;47.700;7.924;2022-09-17T18:37:08;91521.16;;;11.32
43292;BMP280;28754;47.700;7.924;2022-09-17T18:39:55;91520.66;;;11.30
43292;BMP280;28754;47.700;7.924;2022-09-17T18:42:42;91536.00;;;11.35
43292;BMP280;28754;47.700;7.924;2022-09-17T18:45:28;91530.91;;;11.40
43292;BMP280;28754;47.700;7.924;2022-09-17T18:48:15;91535.28;;;11.44